sensor_id;sensor_type;location;lat;lon;timestamp;P1;durP1;ratioP1;P2;durP2;ratioP2
20497;SDS011;10407;53.238;10.448;2022-11-23T00:00:43;38.70;;;19.73;;
20497;SDS011;10407;53.238;10.448;2022-11-23T00:03:13;41.73;;;20.67;;
20497;SDS011;10407;53.238;10.448;2022-11-23T00:05:41;40.23;;;18.70;;
20497;SDS011;10407;53.238;10.448;2022-11-23T00:08:09;41.07;;;18.57;;
20497;SDS011;10407;53.238;10.448;2022-11-23T00:10:36;35.80;;;20.83;;
20497;SDS011;10407;53.238;10.448;2022-11-23T00:13:04;40.43;;;18.87;;
20497;SDS011;10407;53.238;10.448;2022-11-23T00:15:31;42.37;;;20.20;;
20497;SDS011;10407;53.238;10.448;2022-11-23T00:18:00;40.60;;;21.23;;
20497;SDS011;10407;53.238;10.448;2022-11-23T00:20:27;35.80;;;18.30;;
20497;SDS011;10407;53.238;10.448;2022-11-23T00:22:55;33.27;;;18.17;;
20497;SDS011;10407;53.238;10.448;2022-11-23T00:25:22;39.73;;;20.23;;
20497;SDS011;10407;53.238;10.448;2022-11-23T00:27:50;38.00;;;19.40;;
20497;SDS011;10407;53.238;10.448;2022-11-23T00:30:17;34.03;;;18.77;;
20497;SDS011;10407;53.238;10.448;2022-11-23T00:32:45;40.80;;;19.47;;
20497;SDS011;10407;53.238;10.448;2022-11-23T00:35:12;37.47;;;19.70;;
20497;SDS011;10407;53.238;10.448;2022-11-23T00:37:40;35.73;;;19.90;;
20497;SDS011;10407;53.238;10.448;2022-11-23T00:40:08;37.17;;;19.30;;
20497;SDS011;10407;53.238;10.448;2022-11-23T00:42:36;33.47;;;17.30;;
20497;SDS011;10407;53.238;10.448;2022-11-23T00:45:03;34.67;;;17.33;;
20497;SDS011;10407;53.238;10.448;2022-11-23T00:47:31;32.43;;;17.70;;
20497;SDS011;10407;53.238;10.448;2022-11-23T00:49:59;33.87;;;18.10;;
20497;SDS011;10407;53.238;10.448;2022-11-23T00:52:26;33.67;;;18.60;;
20497;SDS011;10407;53.238;10.448;2022-11-23T00:54:54;40.30;;;19.00;;
20497;SDS011;10407;53.238;10.448;2022-11-23T00:57:22;39.70;;;19.10;;
20497;SDS011;10407;53.238;10.448;2022-11-23T00:59:49;42.23;;;18.60;;
20497;SDS011;10407;53.238;10.448;2022-11-23T01:02:17;28.53;;;14.53;;
20497;SDS011;10407;53.238;10.448;2022-11-23T01:04:44;32.83;;;17.73;;
20497;SDS011;10407;53.238;10.448;2022-11-23T01:09:47;44.80;;;18.73;;
20497;SDS011;10407;53.238;10.448;2022-11-23T01:12:15;38.20;;;18.80;;
20497;SDS011;10407;53.238;10.448;2022-11-23T01:14:42;35.57;;;17.30;;
20497;SDS011;10407;53.238;10.448;2022-11-23T01:17:10;36.30;;;19.53;;
20497;SDS011;10407;53.238;10.448;2022-11-23T01:19:38;36.20;;;19.30;;
20497;SDS011;10407;53.238;10.448;2022-11-23T01:22:05;30.83;;;16.00;;
20497;SDS011;10407;53.238;10.448;2022-11-23T01:24:33;30.60;;;17.20;;
20497;SDS011;10407;53.238;10.448;2022-11-23T01:27:00;35.33;;;17.73;;
20497;SDS011;10407;53.238;10.448;2022-11-23T01:29:28;29.60;;;16.23;;
20497;SDS011;10407;53.238;10.448;2022-11-23T01:31:55;36.13;;;16.60;;
20497;SDS011;10407;53.238;10.448;2022-11-23T01:34:23;34.30;;;17.20;;
20497;SDS011;10407;53.238;10.448;2022-11-23T01:36:50;35.50;;;17.90;;
20497;SDS011;10407;53.238;10.448;2022-11-23T01:39:18;34.63;;;18.30;;
20497;SDS011;10407;53.238;10.448;2022-11-23T01:41:45;31.10;;;17.43;;
20497;SDS011;10407;53.238;10.448;2022-11-23T01:44:23;30.73;;;16.63;;
20497;SDS011;10407;53.238;10.448;2022-11-23T01:46:53;31.57;;;16.30;;
20497;SDS011;10407;53.238;10.448;2022-11-23T01:49:22;31.80;;;16.70;;
20497;SDS011;10407;53.238;10.448;2022-11-23T01:51:52;31.80;;;17.00;;
20497;SDS011;10407;53.238;10.448;2022-11-23T01:56:57;34.87;;;16.27;;
20497;SDS011;10407;53.238;10.448;2022-11-23T01:59:26;32.67;;;18.93;;
20497;SDS011;10407;53.238;10.448;2022-11-23T02:01:56;32.17;;;16.60;;
20497;SDS011;10407;53.238;10.448;2022-11-23T02:04:26;29.90;;;15.00;;
20497;SDS011;10407;53.238;10.448;2022-11-23T02:06:56;33.60;;;17.30;;
20497;SDS011;10407;53.238;10.448;2022-11-23T02:09:25;28.13;;;14.90;;
20497;SDS011;10407;53.238;10.448;2022-11-23T02:11:54;30.13;;;15.70;;
20497;SDS011;10407;53.238;10.448;2022-11-23T02:14:22;30.20;;;16.70;;
20497;SDS011;10407;53.238;10.448;2022-11-23T02:16:50;30.20;;;16.70;;
20497;SDS011;10407;53.238;10.448;2022-11-23T02:20:01;60.27;;;15.80;;
20497;SDS011;10407;53.238;10.448;2022-11-23T02:21:54;33.93;;;15.10;;
20497;SDS011;10407;53.238;10.448;2022-11-23T02:24:25;29.73;;;15.07;;
20497;SDS011;10407;53.238;10.448;2022-11-23T02:26:53;32.40;;;14.47;;
20497;SDS011;10407;53.238;10.448;2022-11-23T02:29:22;31.13;;;16.47;;
20497;SDS011;10407;53.238;10.448;2022-11-23T02:31:52;27.77;;;15.17;;
20497;SDS011;10407;53.238;10.448;2022-11-23T02:34:20;26.83;;;14.40;;
20497;SDS011;10407;53.238;10.448;2022-11-23T02:36:51;31.83;;;17.03;;
20497;SDS011;10407;53.238;10.448;2022-11-23T02:39:32;31.43;;;15.20;;
20497;SDS011;10407;53.238;10.448;2022-11-23T02:42:00;29.93;;;15.10;;
20497;SDS011;10407;53.238;10.448;2022-11-23T02:47:10;33.53;;;17.30;;
20497;SDS011;10407;53.238;10.448;2022-11-23T02:49:41;29.50;;;16.33;;
20497;SDS011;10407;53.238;10.448;2022-11-23T02:52:16;27.97;;;14.30;;
20497;SDS011;10407;53.238;10.448;2022-11-23T02:54:44;29.07;;;15.90;;
20497;SDS011;10407;53.238;10.448;2022-11-23T02:57:12;31.63;;;16.33;;
20497;SDS011;10407;53.238;10.448;2022-11-23T02:59:40;26.77;;;15.13;;
20497;SDS011;10407;53.238;10.448;2022-11-23T03:02:07;33.73;;;16.57;;
20497;SDS011;10407;53.238;10.448;2022-11-23T03:04:35;38.27;;;17.53;;
20497;SDS011;10407;53.238;10.448;2022-11-23T03:07:02;27.73;;;14.50;;
20497;SDS011;10407;53.238;10.448;2022-11-23T03:09:30;28.60;;;14.57;;
20497;SDS011;10407;53.238;10.448;2022-11-23T03:11:57;29.33;;;15.70;;
20497;SDS011;10407;53.238;10.448;2022-11-23T03:14:25;33.70;;;15.87;;
20497;SDS011;10407;53.238;10.448;2022-11-23T03:16:52;36.87;;;17.13;;
20497;SDS011;10407;53.238;10.448;2022-11-23T03:19:20;28.13;;;13.50;;
20497;SDS011;10407;53.238;10.448;2022-11-23T03:21:47;33.30;;;15.33;;
20497;SDS011;10407;53.238;10.448;2022-11-23T03:24:15;24.83;;;13.80;;
20497;SDS011;10407;53.238;10.448;2022-11-23T03:26:42;31.40;;;16.10;;
20497;SDS011;10407;53.238;10.448;2022-11-23T03:29:10;27.80;;;16.33;;
20497;SDS011;10407;53.238;10.448;2022-11-23T03:31:37;34.60;;;15.73;;
20497;SDS011;10407;53.238;10.448;2022-11-23T03:34:05;30.03;;;15.50;;
20497;SDS011;10407;53.238;10.448;2022-11-23T03:36:32;29.90;;;14.73;;
20497;SDS011;10407;53.238;10.448;2022-11-23T03:39:00;31.47;;;14.33;;
20497;SDS011;10407;53.238;10.448;2022-11-23T03:41:27;25.80;;;13.17;;
20497;SDS011;10407;53.238;10.448;2022-11-23T03:43:55;28.87;;;15.03;;
20497;SDS011;10407;53.238;10.448;2022-11-23T03:46:22;25.67;;;13.90;;
20497;SDS011;10407;53.238;10.448;2022-11-23T03:48:50;26.93;;;14.67;;
20497;SDS011;10407;53.238;10.448;2022-11-23T03:51:17;29.83;;;15.10;;
20497;SDS011;10407;53.238;10.448;2022-11-23T03:53:45;26.47;;;15.77;;
20497;SDS011;10407;53.238;10.448;2022-11-23T03:56:13;26.43;;;13.43;;
20497;SDS011;10407;53.238;10.448;2022-11-23T03:58:40;26.90;;;13.50;;
20497;SDS011;10407;53.238;10.448;2022-11-23T04:01:08;20.30;;;12.73;;
20497;SDS011;10407;53.238;10.448;2022-11-23T04:03:35;27.70;;;13.67;;
20497;SDS011;10407;53.238;10.448;2022-11-23T04:06:03;28.47;;;14.03;;
20497;SDS011;10407;53.238;10.448;2022-11-23T04:08:31;26.87;;;13.07;;
20497;SDS011;10407;53.238;10.448;2022-11-23T04:10:58;24.83;;;13.53;;
20497;SDS011;10407;53.238;10.448;2022-11-23T04:13:26;27.83;;;12.93;;
20497;SDS011;10407;53.238;10.448;2022-11-23T04:15:53;27.73;;;14.30;;
20497;SDS011;10407;53.238;10.448;2022-11-23T04:18:21;24.43;;;12.60;;
20497;SDS011;10407;53.238;10.448;2022-11-23T04:20:48;21.53;;;12.40;;
20497;SDS011;10407;53.238;10.448;2022-11-23T04:23:16;22.03;;;12.27;;
20497;SDS011;10407;53.238;10.448;2022-11-23T04:25:44;27.10;;;12.90;;
20497;SDS011;10407;53.238;10.448;2022-11-23T04:28:12;22.03;;;12.83;;
20497;SDS011;10407;53.238;10.448;2022-11-23T04:30:39;24.90;;;12.80;;
20497;SDS011;10407;53.238;10.448;2022-11-23T04:33:07;29.07;;;12.70;;
20497;SDS011;10407;53.238;10.448;2022-11-23T04:35:35;23.90;;;13.30;;
20497;SDS011;10407;53.238;10.448;2022-11-23T04:38:03;21.70;;;11.53;;
20497;SDS011;10407;53.238;10.448;2022-11-23T04:40:30;24.20;;;13.30;;
20497;SDS011;10407;53.238;10.448;2022-11-23T04:42:58;20.40;;;11.53;;
20497;SDS011;10407;53.238;10.448;2022-11-23T04:45:25;25.73;;;13.23;;
20497;SDS011;10407;53.238;10.448;2022-11-23T04:47:53;29.10;;;12.87;;
20497;SDS011;10407;53.238;10.448;2022-11-23T04:50:20;25.23;;;12.20;;
20497;SDS011;10407;53.238;10.448;2022-11-23T04:52:48;18.53;;;10.77;;
20497;SDS011;10407;53.238;10.448;2022-11-23T04:55:15;19.60;;;11.70;;
20497;SDS011;10407;53.238;10.448;2022-11-23T04:57:43;22.20;;;13.10;;
20497;SDS011;10407;53.238;10.448;2022-11-23T05:00:11;19.50;;;11.97;;
20497;SDS011;10407;53.238;10.448;2022-11-23T05:02:39;24.50;;;12.13;;
20497;SDS011;10407;53.238;10.448;2022-11-23T05:05:07;23.00;;;12.00;;
20497;SDS011;10407;53.238;10.448;2022-11-23T05:07:35;22.50;;;12.40;;
20497;SDS011;10407;53.238;10.448;2022-11-23T05:10:02;22.23;;;12.00;;
20497;SDS011;10407;53.238;10.448;2022-11-23T05:12:30;22.63;;;12.67;;
20497;SDS011;10407;53.238;10.448;2022-11-23T05:14:58;26.70;;;11.43;;
20497;SDS011;10407;53.238;10.448;2022-11-23T05:17:25;26.83;;;12.73;;
20497;SDS011;10407;53.238;10.448;2022-11-23T05:19:53;21.67;;;11.80;;
20497;SDS011;10407;53.238;10.448;2022-11-23T05:22:21;25.70;;;12.37;;
20497;SDS011;10407;53.238;10.448;2022-11-23T05:24:48;22.47;;;11.57;;
20497;SDS011;10407;53.238;10.448;2022-11-23T05:27:16;22.33;;;10.60;;
20497;SDS011;10407;53.238;10.448;2022-11-23T05:29:43;25.90;;;11.90;;
20497;SDS011;10407;53.238;10.448;2022-11-23T05:32:11;20.23;;;11.60;;
20497;SDS011;10407;53.238;10.448;2022-11-23T05:34:38;31.40;;;12.30;;
20497;SDS011;10407;53.238;10.448;2022-11-23T05:37:06;24.57;;;12.07;;
20497;SDS011;10407;53.238;10.448;2022-11-23T05:39:33;17.20;;;11.60;;
20497;SDS011;10407;53.238;10.448;2022-11-23T05:42:01;19.43;;;10.83;;
20497;SDS011;10407;53.238;10.448;2022-11-23T05:44:28;20.83;;;12.67;;
20497;SDS011;10407;53.238;10.448;2022-11-23T05:46:56;23.83;;;11.97;;
20497;SDS011;10407;53.238;10.448;2022-11-23T05:49:24;20.87;;;12.27;;
20497;SDS011;10407;53.238;10.448;2022-11-23T05:51:51;19.73;;;11.13;;
20497;SDS011;10407;53.238;10.448;2022-11-23T05:54:19;20.40;;;11.27;;
20497;SDS011;10407;53.238;10.448;2022-11-23T05:56:46;22.33;;;12.53;;
20497;SDS011;10407;53.238;10.448;2022-11-23T05:59:14;21.20;;;11.67;;
20497;SDS011;10407;53.238;10.448;2022-11-23T06:01:41;28.83;;;11.87;;
20497;SDS011;10407;53.238;10.448;2022-11-23T06:04:09;23.63;;;11.37;;
20497;SDS011;10407;53.238;10.448;2022-11-23T06:06:38;19.00;;;11.20;;
20497;SDS011;10407;53.238;10.448;2022-11-23T06:09:05;21.17;;;11.60;;
20497;SDS011;10407;53.238;10.448;2022-11-23T06:11:33;26.63;;;11.87;;
20497;SDS011;10407;53.238;10.448;2022-11-23T06:14:00;22.03;;;13.00;;
20497;SDS011;10407;53.238;10.448;2022-11-23T06:16:28;21.33;;;12.03;;
20497;SDS011;10407;53.238;10.448;2022-11-23T06:18:55;20.83;;;10.60;;
20497;SDS011;10407;53.238;10.448;2022-11-23T06:21:23;34.07;;;12.30;;
20497;SDS011;10407;53.238;10.448;2022-11-23T06:23:50;23.63;;;11.50;;
20497;SDS011;10407;53.238;10.448;2022-11-23T06:26:18;17.83;;;10.40;;
20497;SDS011;10407;53.238;10.448;2022-11-23T06:28:45;20.80;;;11.53;;
20497;SDS011;10407;53.238;10.448;2022-11-23T06:31:13;17.73;;;11.00;;
20497;SDS011;10407;53.238;10.448;2022-11-23T06:33:40;33.17;;;13.90;;
20497;SDS011;10407;53.238;10.448;2022-11-23T06:36:08;23.27;;;12.00;;
20497;SDS011;10407;53.238;10.448;2022-11-23T06:38:37;26.93;;;11.90;;
20497;SDS011;10407;53.238;10.448;2022-11-23T06:41:04;25.40;;;12.13;;
20497;SDS011;10407;53.238;10.448;2022-11-23T06:43:32;27.50;;;12.37;;
20497;SDS011;10407;53.238;10.448;2022-11-23T06:46:02;22.10;;;11.33;;
20497;SDS011;10407;53.238;10.448;2022-11-23T06:48:31;19.50;;;12.10;;
20497;SDS011;10407;53.238;10.448;2022-11-23T06:50:59;25.47;;;12.70;;
20497;SDS011;10407;53.238;10.448;2022-11-23T06:53:27;25.30;;;12.07;;
20497;SDS011;10407;53.238;10.448;2022-11-23T06:55:58;21.17;;;11.43;;
20497;SDS011;10407;53.238;10.448;2022-11-23T06:58:26;27.47;;;13.93;;
20497;SDS011;10407;53.238;10.448;2022-11-23T07:00:58;71.80;;;12.80;;
20497;SDS011;10407;53.238;10.448;2022-11-23T07:03:27;20.57;;;11.17;;
20497;SDS011;10407;53.238;10.448;2022-11-23T07:05:55;21.33;;;12.10;;
20497;SDS011;10407;53.238;10.448;2022-11-23T07:08:22;29.77;;;12.80;;
20497;SDS011;10407;53.238;10.448;2022-11-23T07:10:50;18.17;;;11.17;;
20497;SDS011;10407;53.238;10.448;2022-11-23T07:13:17;20.53;;;11.07;;
20497;SDS011;10407;53.238;10.448;2022-11-23T07:15:45;23.27;;;12.17;;
20497;SDS011;10407;53.238;10.448;2022-11-23T07:18:12;24.13;;;12.87;;
20497;SDS011;10407;53.238;10.448;2022-11-23T07:20:40;29.40;;;12.00;;
20497;SDS011;10407;53.238;10.448;2022-11-23T07:23:08;22.73;;;11.87;;
20497;SDS011;10407;53.238;10.448;2022-11-23T07:25:37;27.00;;;11.83;;
20497;SDS011;10407;53.238;10.448;2022-11-23T07:28:05;23.07;;;10.97;;
20497;SDS011;10407;53.238;10.448;2022-11-23T07:30:33;21.67;;;12.27;;
20497;SDS011;10407;53.238;10.448;2022-11-23T07:33:05;22.53;;;11.07;;
20497;SDS011;10407;53.238;10.448;2022-11-23T07:35:35;23.50;;;11.90;;
20497;SDS011;10407;53.238;10.448;2022-11-23T07:38:04;22.23;;;10.80;;
20497;SDS011;10407;53.238;10.448;2022-11-23T07:40:37;20.23;;;11.63;;
20497;SDS011;10407;53.238;10.448;2022-11-23T07:43:05;29.83;;;11.00;;
20497;SDS011;10407;53.238;10.448;2022-11-23T07:45:33;21.40;;;12.97;;
20497;SDS011;10407;53.238;10.448;2022-11-23T07:48:03;19.17;;;11.07;;
20497;SDS011;10407;53.238;10.448;2022-11-23T07:50:32;23.40;;;11.50;;
20497;SDS011;10407;53.238;10.448;2022-11-23T07:53:02;19.33;;;10.03;;
20497;SDS011;10407;53.238;10.448;2022-11-23T07:55:31;23.13;;;10.20;;
20497;SDS011;10407;53.238;10.448;2022-11-23T07:57:59;25.50;;;10.87;;
20497;SDS011;10407;53.238;10.448;2022-11-23T08:00:28;22.20;;;11.03;;
20497;SDS011;10407;53.238;10.448;2022-11-23T08:02:56;21.50;;;10.53;;
20497;SDS011;10407;53.238;10.448;2022-11-23T08:05:24;26.60;;;11.20;;
20497;SDS011;10407;53.238;10.448;2022-11-23T08:07:58;22.60;;;11.90;;
20497;SDS011;10407;53.238;10.448;2022-11-23T08:10:32;21.00;;;10.67;;
20497;SDS011;10407;53.238;10.448;2022-11-23T08:13:02;20.47;;;11.53;;
20497;SDS011;10407;53.238;10.448;2022-11-23T08:15:26;15.67;;;10.47;;
20497;SDS011;10407;53.238;10.448;2022-11-23T08:18:00;19.67;;;10.60;;
20497;SDS011;10407;53.238;10.448;2022-11-23T08:20:24;24.20;;;10.67;;
20497;SDS011;10407;53.238;10.448;2022-11-23T08:22:53;17.03;;;10.33;;
20497;SDS011;10407;53.238;10.448;2022-11-23T08:25:22;16.77;;;10.23;;
20497;SDS011;10407;53.238;10.448;2022-11-23T08:27:54;18.67;;;10.27;;
20497;SDS011;10407;53.238;10.448;2022-11-23T08:30:26;20.43;;;10.43;;
20497;SDS011;10407;53.238;10.448;2022-11-23T08:32:55;22.67;;;10.40;;
20497;SDS011;10407;53.238;10.448;2022-11-23T08:35:23;19.03;;;9.80;;
20497;SDS011;10407;53.238;10.448;2022-11-23T08:37:50;18.50;;;9.70;;
20497;SDS011;10407;53.238;10.448;2022-11-23T08:40:18;26.13;;;11.13;;
20497;SDS011;10407;53.238;10.448;2022-11-23T08:42:45;14.37;;;9.30;;
20497;SDS011;10407;53.238;10.448;2022-11-23T08:45:13;26.77;;;9.60;;
20497;SDS011;10407;53.238;10.448;2022-11-23T08:47:41;22.57;;;9.30;;
20497;SDS011;10407;53.238;10.448;2022-11-23T08:50:08;19.77;;;9.70;;
20497;SDS011;10407;53.238;10.448;2022-11-23T08:52:36;15.13;;;9.13;;
20497;SDS011;10407;53.238;10.448;2022-11-23T08:55:04;20.47;;;8.60;;
20497;SDS011;10407;53.238;10.448;2022-11-23T08:57:32;17.83;;;9.23;;
20497;SDS011;10407;53.238;10.448;2022-11-23T08:59:59;15.20;;;8.63;;
20497;SDS011;10407;53.238;10.448;2022-11-23T09:02:27;19.80;;;9.00;;
20497;SDS011;10407;53.238;10.448;2022-11-23T09:04:55;15.77;;;9.50;;
20497;SDS011;10407;53.238;10.448;2022-11-23T09:07:22;29.73;;;10.03;;
20497;SDS011;10407;53.238;10.448;2022-11-23T09:09:50;14.23;;;9.33;;
20497;SDS011;10407;53.238;10.448;2022-11-23T09:12:18;14.97;;;9.43;;
20497;SDS011;10407;53.238;10.448;2022-11-23T09:14:45;26.63;;;9.17;;
20497;SDS011;10407;53.238;10.448;2022-11-23T09:17:12;17.13;;;9.37;;
20497;SDS011;10407;53.238;10.448;2022-11-23T09:19:40;16.40;;;8.07;;
20497;SDS011;10407;53.238;10.448;2022-11-23T09:22:07;19.87;;;8.63;;
20497;SDS011;10407;53.238;10.448;2022-11-23T09:24:35;15.80;;;6.93;;
20497;SDS011;10407;53.238;10.448;2022-11-23T09:27:03;17.03;;;8.30;;
20497;SDS011;10407;53.238;10.448;2022-11-23T09:29:30;17.27;;;6.77;;
20497;SDS011;10407;53.238;10.448;2022-11-23T09:31:57;16.87;;;7.80;;
20497;SDS011;10407;53.238;10.448;2022-11-23T09:34:27;13.07;;;7.80;;
20497;SDS011;10407;53.238;10.448;2022-11-23T09:36:57;13.40;;;6.90;;
20497;SDS011;10407;53.238;10.448;2022-11-23T09:39:24;15.90;;;7.63;;
20497;SDS011;10407;53.238;10.448;2022-11-23T09:42:01;11.07;;;6.90;;
20497;SDS011;10407;53.238;10.448;2022-11-23T09:44:40;18.20;;;7.70;;
20497;SDS011;10407;53.238;10.448;2022-11-23T09:52:38;11.00;;;6.73;;
20497;SDS011;10407;53.238;10.448;2022-11-23T09:58:04;16.33;;;7.87;;
20497;SDS011;10407;53.238;10.448;2022-11-23T10:00:36;23.23;;;6.83;;
20497;SDS011;10407;53.238;10.448;2022-11-23T10:03:09;15.73;;;6.30;;
20497;SDS011;10407;53.238;10.448;2022-11-23T10:06:06;10.50;;;6.37;;
20497;SDS011;10407;53.238;10.448;2022-11-23T10:14:13;13.83;;;7.37;;
20497;SDS011;10407;53.238;10.448;2022-11-23T10:19:26;9.63;;;6.20;;
20497;SDS011;10407;53.238;10.448;2022-11-23T10:22:04;10.80;;;6.20;;
20497;SDS011;10407;53.238;10.448;2022-11-23T10:24:48;14.33;;;5.90;;
20497;SDS011;10407;53.238;10.448;2022-11-23T10:27:21;13.60;;;6.20;;
20497;SDS011;10407;53.238;10.448;2022-11-23T10:29:50;6.37;;;4.80;;
20497;SDS011;10407;53.238;10.448;2022-11-23T10:32:25;11.23;;;6.10;;
20497;SDS011;10407;53.238;10.448;2022-11-23T10:35:15;8.83;;;5.00;;
20497;SDS011;10407;53.238;10.448;2022-11-23T10:37:50;8.83;;;5.10;;
20497;SDS011;10407;53.238;10.448;2022-11-23T10:40:23;11.23;;;5.73;;
20497;SDS011;10407;53.238;10.448;2022-11-23T10:42:55;15.27;;;6.73;;
20497;SDS011;10407;53.238;10.448;2022-11-23T10:45:25;10.37;;;5.43;;
20497;SDS011;10407;53.238;10.448;2022-11-23T10:50:28;11.73;;;5.50;;
20497;SDS011;10407;53.238;10.448;2022-11-23T10:53:00;10.27;;;6.10;;
20497;SDS011;10407;53.238;10.448;2022-11-23T10:55:45;8.63;;;6.03;;
20497;SDS011;10407;53.238;10.448;2022-11-23T10:58:13;17.17;;;5.80;;
20497;SDS011;10407;53.238;10.448;2022-11-23T11:00:58;9.97;;;5.10;;
20497;SDS011;10407;53.238;10.448;2022-11-23T11:03:29;10.13;;;5.70;;
20497;SDS011;10407;53.238;10.448;2022-11-23T11:05:59;11.47;;;6.00;;
20497;SDS011;10407;53.238;10.448;2022-11-23T11:08:33;11.00;;;5.67;;
20497;SDS011;10407;53.238;10.448;2022-11-23T11:11:04;13.37;;;5.60;;
20497;SDS011;10407;53.238;10.448;2022-11-23T11:13:43;16.83;;;8.20;;
20497;SDS011;10407;53.238;10.448;2022-11-23T11:16:18;15.77;;;7.80;;
20497;SDS011;10407;53.238;10.448;2022-11-23T11:18:49;11.40;;;5.70;;
20497;SDS011;10407;53.238;10.448;2022-11-23T11:24:35;11.07;;;5.30;;
20497;SDS011;10407;53.238;10.448;2022-11-23T11:26:23;12.57;;;6.60;;
20497;SDS011;10407;53.238;10.448;2022-11-23T11:29:11;11.30;;;6.10;;
20497;SDS011;10407;53.238;10.448;2022-11-23T11:34:21;11.23;;;5.80;;
20497;SDS011;10407;53.238;10.448;2022-11-23T11:39:48;12.53;;;5.37;;
20497;SDS011;10407;53.238;10.448;2022-11-23T11:42:28;7.77;;;5.47;;
20497;SDS011;10407;53.238;10.448;2022-11-23T11:45:13;9.23;;;4.97;;
20497;SDS011;10407;53.238;10.448;2022-11-23T11:47:49;18.03;;;5.80;;
20497;SDS011;10407;53.238;10.448;2022-11-23T11:50:22;12.87;;;6.20;;
20497;SDS011;10407;53.238;10.448;2022-11-23T11:52:52;11.93;;;5.47;;
20497;SDS011;10407;53.238;10.448;2022-11-23T11:55:25;11.97;;;6.00;;
20497;SDS011;10407;53.238;10.448;2022-11-23T11:58:04;16.50;;;8.00;;
20497;SDS011;10407;53.238;10.448;2022-11-23T12:00:37;9.17;;;5.50;;
20497;SDS011;10407;53.238;10.448;2022-11-23T12:05:54;14.67;;;5.73;;
20497;SDS011;10407;53.238;10.448;2022-11-23T12:10:56;7.33;;;4.97;;
20497;SDS011;10407;53.238;10.448;2022-11-23T12:13:27;9.70;;;4.50;;
20497;SDS011;10407;53.238;10.448;2022-11-23T12:16:04;9.70;;;5.23;;
20497;SDS011;10407;53.238;10.448;2022-11-23T12:21:16;9.77;;;5.40;;
20497;SDS011;10407;53.238;10.448;2022-11-23T12:23:58;14.53;;;5.50;;
20497;SDS011;10407;53.238;10.448;2022-11-23T12:26:36;9.40;;;5.27;;
20497;SDS011;10407;53.238;10.448;2022-11-23T12:32:08;13.07;;;5.90;;
20497;SDS011;10407;53.238;10.448;2022-11-23T12:34:55;10.53;;;5.60;;
20497;SDS011;10407;53.238;10.448;2022-11-23T12:37:55;10.40;;;5.77;;
20497;SDS011;10407;53.238;10.448;2022-11-23T12:43:07;14.73;;;6.80;;
20497;SDS011;10407;53.238;10.448;2022-11-23T12:50:59;8.63;;;5.03;;
20497;SDS011;10407;53.238;10.448;2022-11-23T12:58:45;14.27;;;5.43;;
20497;SDS011;10407;53.238;10.448;2022-11-23T13:01:15;14.83;;;5.40;;
20497;SDS011;10407;53.238;10.448;2022-11-23T13:06:43;12.03;;;5.47;;
20497;SDS011;10407;53.238;10.448;2022-11-23T13:15:15;9.83;;;4.90;;
20497;SDS011;10407;53.238;10.448;2022-11-23T13:17:51;12.27;;;4.30;;
20497;SDS011;10407;53.238;10.448;2022-11-23T13:23:35;11.33;;;5.77;;
20497;SDS011;10407;53.238;10.448;2022-11-23T13:28:52;10.63;;;5.17;;
20497;SDS011;10407;53.238;10.448;2022-11-23T13:31:18;8.80;;;5.17;;
20497;SDS011;10407;53.238;10.448;2022-11-23T13:33:49;7.37;;;4.43;;
20497;SDS011;10407;53.238;10.448;2022-11-23T13:36:41;10.83;;;4.73;;
20497;SDS011;10407;53.238;10.448;2022-11-23T13:38:56;10.03;;;5.07;;
20497;SDS011;10407;53.238;10.448;2022-11-23T13:44:11;15.13;;;4.50;;
20497;SDS011;10407;53.238;10.448;2022-11-23T13:49:41;9.80;;;4.60;;
20497;SDS011;10407;53.238;10.448;2022-11-23T13:52:19;8.57;;;4.70;;
20497;SDS011;10407;53.238;10.448;2022-11-23T13:55:01;7.80;;;4.70;;
20497;SDS011;10407;53.238;10.448;2022-11-23T13:57:30;9.33;;;5.03;;
20497;SDS011;10407;53.238;10.448;2022-11-23T14:06:23;10.50;;;5.40;;
20497;SDS011;10407;53.238;10.448;2022-11-23T14:11:56;11.80;;;4.90;;
20497;SDS011;10407;53.238;10.448;2022-11-23T14:14:32;12.00;;;6.60;;
20497;SDS011;10407;53.238;10.448;2022-11-23T14:34:19;9.13;;;4.80;;
20497;SDS011;10407;53.238;10.448;2022-11-23T14:42:18;8.90;;;4.57;;
20497;SDS011;10407;53.238;10.448;2022-11-23T14:44:48;8.63;;;4.53;;
20497;SDS011;10407;53.238;10.448;2022-11-23T14:47:24;14.20;;;4.90;;
20497;SDS011;10407;53.238;10.448;2022-11-23T14:49:55;14.30;;;5.00;;
20497;SDS011;10407;53.238;10.448;2022-11-23T14:52:27;7.97;;;4.93;;
20497;SDS011;10407;53.238;10.448;2022-11-23T14:54:57;10.23;;;5.00;;
20497;SDS011;10407;53.238;10.448;2022-11-23T14:57:29;10.97;;;5.60;;
20497;SDS011;10407;53.238;10.448;2022-11-23T15:00:01;12.97;;;7.63;;
20497;SDS011;10407;53.238;10.448;2022-11-23T15:02:33;13.83;;;5.80;;
20497;SDS011;10407;53.238;10.448;2022-11-23T15:05:13;11.23;;;6.10;;
20497;SDS011;10407;53.238;10.448;2022-11-23T15:07:45;9.03;;;4.90;;
20497;SDS011;10407;53.238;10.448;2022-11-23T15:10:27;11.87;;;4.90;;
20497;SDS011;10407;53.238;10.448;2022-11-23T15:12:54;9.10;;;5.20;;
20497;SDS011;10407;53.238;10.448;2022-11-23T15:15:27;16.17;;;8.40;;
20497;SDS011;10407;53.238;10.448;2022-11-23T15:17:56;15.97;;;8.13;;
20497;SDS011;10407;53.238;10.448;2022-11-23T15:20:28;12.30;;;6.07;;
20497;SDS011;10407;53.238;10.448;2022-11-23T15:23:01;14.40;;;5.30;;
20497;SDS011;10407;53.238;10.448;2022-11-23T15:25:29;15.70;;;5.20;;
20497;SDS011;10407;53.238;10.448;2022-11-23T15:27:57;15.00;;;5.57;;
20497;SDS011;10407;53.238;10.448;2022-11-23T15:30:26;10.63;;;6.37;;
20497;SDS011;10407;53.238;10.448;2022-11-23T15:32:59;13.10;;;7.17;;
20497;SDS011;10407;53.238;10.448;2022-11-23T15:35:33;9.53;;;6.20;;
20497;SDS011;10407;53.238;10.448;2022-11-23T15:38:03;10.37;;;5.37;;
20497;SDS011;10407;53.238;10.448;2022-11-23T15:40:40;8.13;;;5.73;;
20497;SDS011;10407;53.238;10.448;2022-11-23T15:43:13;10.33;;;6.00;;
20497;SDS011;10407;53.238;10.448;2022-11-23T15:48:26;11.07;;;6.87;;
20497;SDS011;10407;53.238;10.448;2022-11-23T15:51:00;14.33;;;5.93;;
20497;SDS011;10407;53.238;10.448;2022-11-23T15:53:32;12.67;;;5.97;;
20497;SDS011;10407;53.238;10.448;2022-11-23T15:56:21;8.60;;;6.97;;
20497;SDS011;10407;53.238;10.448;2022-11-23T15:59:03;12.93;;;7.40;;
20497;SDS011;10407;53.238;10.448;2022-11-23T16:01:33;13.30;;;7.33;;
20497;SDS011;10407;53.238;10.448;2022-11-23T16:04:05;11.17;;;7.50;;
20497;SDS011;10407;53.238;10.448;2022-11-23T16:06:38;22.17;;;11.07;;
20497;SDS011;10407;53.238;10.448;2022-11-23T16:12:03;19.87;;;8.97;;
20497;SDS011;10407;53.238;10.448;2022-11-23T16:14:32;16.00;;;6.60;;
20497;SDS011;10407;53.238;10.448;2022-11-23T16:17:04;15.63;;;6.70;;
20497;SDS011;10407;53.238;10.448;2022-11-23T16:19:33;8.27;;;6.13;;
20497;SDS011;10407;53.238;10.448;2022-11-23T16:22:01;13.40;;;7.40;;
20497;SDS011;10407;53.238;10.448;2022-11-23T16:24:32;10.70;;;6.60;;
20497;SDS011;10407;53.238;10.448;2022-11-23T16:27:00;16.80;;;7.57;;
20497;SDS011;10407;53.238;10.448;2022-11-23T16:29:33;10.70;;;5.90;;